Terminal Aerodrome Forecast
Issued by NWS Shreveport, LA

Home | Current Version | Previous Version | Text Only | Print | Product List | Glossary On
Versions: 1 2 3 4 5 6 7 8 9 10 11 12 13
000
FTUS44 KSHV 231100
TAFTYR
TAF
KTYR 231140Z 2312/2412 00000KT P6SM SKC
     FM231500 VRB04KT P6SM SCT030 SCT250
     FM231800 VRB05KT P6SM SCT045 SCT250
     FM240100 VRB04KT P6SM FEW250=

USA.gov is the U.S. government's official web portal to all federal, state and local government web resources and services.